Terminal Aerodrome Forecast
Issued by NWS Wilmington, NC

Home | Current Version | Previous Version | Text Only | Print | Product List | Glossary On
Versions: 1 2 3 4 5 6 7 8 9 10 11 12
765
FTUS42 KILM 241728
TAFFLO
TAF
KFLO 241728Z 2418/2518 19012KT P6SM SCT050
     FM242000 17007KT P6SM FEW050
     FM250100 16005KT P6SM FEW200
     FM251100 VRB03KT P6SM SCT040
     FM251200 00000KT P6SM BKN030
     FM251400 18006KT P6SM BKN040=

USA.gov is the U.S. government's official web portal to all federal, state and local government web resources and services.